createdAt,value
2022-11-12T00:00:26.077Z,6.5
2022-11-12T00:06:03.802Z,6.4
2022-11-12T00:11:42.075Z,6.3
2022-11-12T00:17:18.752Z,6.3
2022-11-12T00:22:57.192Z,6.1
2022-11-12T00:28:38.109Z,6.1
2022-11-12T00:34:16.336Z,5.9
2022-11-12T00:39:56.826Z,5.9
2022-11-12T00:45:34.348Z,5.9
2022-11-12T00:50:41.261Z,5.9
2022-11-12T00:56:18.789Z,5.9
2022-11-12T01:01:42.047Z,5.9
2022-11-12T01:07:24.156Z,5.9
2022-11-12T01:13:02.105Z,5.9
2022-11-12T01:18:12.283Z,6
2022-11-12T01:23:50.844Z,6
2022-11-12T01:29:28.868Z,6
2022-11-12T01:35:06.586Z,6.1
2022-11-12T01:40:30.296Z,6.1
2022-11-12T01:45:53.278Z,6.1
2022-11-12T01:51:37.445Z,6.1
2022-11-12T01:57:16.521Z,6.1
2022-11-12T02:02:57.345Z,6.1
2022-11-12T02:08:35.067Z,6.2
2022-11-12T02:14:13.235Z,6.3
2022-11-12T02:19:36.165Z,6.3
2022-11-12T02:25:13.321Z,6.3
2022-11-12T02:30:34.873Z,6.3
2022-11-12T02:36:12.847Z,6.3
2022-11-12T02:41:35.835Z,6.3
2022-11-12T02:47:13.147Z,6.3
2022-11-12T02:52:51.383Z,6.3
2022-11-12T02:58:14.246Z,6.3
2022-11-12T03:03:21.521Z,6.3
2022-11-12T03:09:05.783Z,6.4
2022-11-12T03:14:27.974Z,6.4
2022-11-12T03:20:04.962Z,6.4
2022-11-12T03:25:27.856Z,6.3
2022-11-12T03:31:07.283Z,6.3
2022-11-12T03:36:44.071Z,6.2
2022-11-12T03:42:21.028Z,6.2
2022-11-12T03:47:27.824Z,6
2022-11-12T03:52:49.901Z,5.9
2022-11-12T03:58:11.601Z,5.8
2022-11-12T04:03:18.762Z,5.7
2022-11-12T04:08:25.474Z,5.6
2022-11-12T04:13:48.211Z,5.4
2022-11-12T04:18:55.089Z,5.2
2022-11-12T04:24:01.695Z,5
2022-11-12T04:29:07.830Z,4.8
2022-11-12T04:34:30.401Z,4.7
2022-11-12T04:39:42.465Z,4.6
2022-11-12T04:45:04.944Z,4.5
2022-11-12T04:50:27.710Z,4.4
2022-11-12T04:55:50.177Z,4.5
2022-11-12T05:01:12.205Z,4.6
2022-11-12T05:06:49.883Z,4.6
2022-11-12T05:12:28.663Z,4.8
2022-11-12T05:18:06.320Z,4.8
2022-11-12T05:24:40.333Z,5
2022-11-12T05:30:21.172Z,5.1
2022-11-12T05:36:00.977Z,5.1
2022-11-12T05:41:58.237Z,5.2
2022-11-12T05:47:43.789Z,5.3
2022-11-12T05:53:50.517Z,5.3
2022-11-12T05:59:36.476Z,5.4
2022-11-12T06:04:59.267Z,5.6
2022-11-12T06:10:21.505Z,5.8
2022-11-12T06:15:44.177Z,6.1
2022-11-12T06:21:06.481Z,6.9
2022-11-12T06:26:35.195Z,9.2
2022-11-12T06:31:58.345Z,13
2022-11-12T06:37:26.746Z,17.2
2022-11-12T06:42:48.085Z,20.9
2022-11-12T06:47:54.877Z,23.9
2022-11-12T06:53:34.097Z,24.7
2022-11-12T06:58:56.271Z,24.9
2022-11-12T07:04:38.154Z,27.2
2022-11-12T07:10:19.820Z,27.1
2022-11-12T07:15:48.030Z,26.6
2022-11-12T07:21:15.911Z,25.7
2022-11-12T07:26:39.873Z,24.5
2022-11-12T07:32:44.095Z,23.8
2022-11-12T07:38:11.345Z,23.4
2022-11-12T07:43:50.230Z,23.3
2022-11-12T07:49:35.538Z,22.8
2022-11-12T07:55:13.922Z,22.1
2022-11-12T08:00:58.196Z,21
2022-11-12T08:06:45.303Z,20.1
2022-11-12T08:12:24.607Z,19.3
2022-11-12T08:18:06.719Z,18.6
2022-11-12T08:23:29.837Z,18.4
2022-11-12T08:29:08.764Z,18.4
2022-11-12T08:40:13.835Z,19.1
2022-11-12T08:45:53.774Z,19.3
2022-11-12T08:51:33.167Z,18.9
2022-11-12T08:57:11.816Z,18.6
2022-11-12T09:02:50.605Z,18.6
2022-11-12T09:19:41.655Z,18.6
2022-11-12T09:25:21.337Z,18.4
2022-11-12T09:31:00.435Z,17.9
2022-11-12T09:36:39.874Z,17.4
2022-11-12T09:42:19.575Z,17.1
2022-11-12T09:48:29.706Z,16.6
2022-11-12T09:54:07.971Z,16.3
2022-11-12T09:59:45.718Z,16.1
2022-11-12T10:05:24.426Z,16.2
2022-11-12T10:11:07.903Z,16.8
2022-11-12T10:16:52.685Z,17.6
2022-11-12T10:22:31.279Z,17.7
2022-11-12T10:28:09.355Z,17.4
2022-11-12T10:33:48.113Z,16.9
2022-11-12T10:39:26.096Z,16.4
2022-11-12T10:45:08.857Z,15.9
2022-11-12T10:50:47.625Z,15.4
2022-11-12T10:56:26.154Z,15.1
2022-11-12T11:02:09.662Z,14.8
2022-11-12T11:07:48.386Z,14.6
2022-11-12T11:13:12.114Z,14.5
2022-11-12T11:18:35.109Z,14.6
2022-11-12T11:24:02.025Z,14.4
2022-11-12T11:29:40.350Z,14.4
2022-11-12T11:35:18.508Z,14.3
2022-11-12T11:40:56.748Z,14.1
2022-11-12T11:46:35.601Z,13.9
2022-11-12T11:52:38.214Z,13.6
2022-11-12T11:58:16.700Z,13.4
2022-11-12T12:03:54.886Z,13.2
2022-11-12T12:09:33.145Z,13
2022-11-12T12:15:40.747Z,12.9
2022-11-12T12:21:20.149Z,12.8
2022-11-12T12:26:58.320Z,12.8
2022-11-12T12:32:41.366Z,12.8
2022-11-12T12:38:19.803Z,12.8
2022-11-12T12:44:03.323Z,12.8
2022-11-12T12:49:26.622Z,12.8
2022-11-12T12:55:05.795Z,12.8
2022-11-12T13:00:32.893Z,12.8
2022-11-12T13:06:12.093Z,12.8
2022-11-12T13:11:35.650Z,12.5
2022-11-12T13:17:14.108Z,12.3
2022-11-12T13:22:52.886Z,12.1
2022-11-12T13:28:23.115Z,12
2022-11-12T13:34:07.230Z,11.8
2022-11-12T13:39:34.542Z,11.6
2022-11-12T13:45:13.910Z,11.4
2022-11-12T13:50:57.963Z,11.2
2022-11-12T13:56:20.980Z,11.1
2022-11-12T14:01:47.807Z,11.1
2022-11-12T14:07:30.870Z,11.1
2022-11-12T14:13:09.016Z,11
2022-11-12T14:18:51.220Z,10.9
2022-11-12T14:24:36.357Z,10.9
2022-11-12T14:30:17.775Z,10.8
2022-11-12T14:35:55.528Z,10.7
2022-11-12T14:41:37.233Z,10.6
2022-11-12T14:47:37.900Z,10.4
2022-11-12T14:53:23.589Z,10.3
2022-11-12T14:59:09.602Z,10.2
2022-11-12T15:05:51.360Z,10.1
2022-11-12T15:11:18.831Z,9.9
2022-11-12T15:16:43.719Z,9.7
2022-11-12T15:22:28.255Z,9.5
2022-11-12T15:28:07.230Z,9.3
2022-11-12T15:33:29.725Z,9.1
2022-11-12T15:39:08.489Z,8.9
2022-11-12T15:44:31.494Z,8.9
2022-11-12T15:49:29.347Z,8.8
2022-11-12T15:55:14.704Z,8.7
2022-11-12T16:00:52.406Z,8.6
2022-11-12T16:06:14.923Z,8.5
2022-11-12T16:11:37.968Z,8.5
2022-11-12T16:17:01.378Z,8.4
2022-11-12T16:22:39.164Z,8.4
2022-11-12T16:28:02.914Z,8.4
2022-11-12T16:33:42.063Z,8.3
2022-11-12T16:39:19.723Z,8.3
2022-11-12T16:44:58.244Z,8.3
2022-11-12T16:50:36.538Z,8.2
2022-11-12T16:56:17.232Z,8.1
2022-11-12T17:01:55.852Z,8.1
2022-11-12T17:07:24.601Z,8.1
2022-11-12T17:12:50.565Z,8.1
2022-11-12T17:18:13.405Z,8.1
2022-11-12T17:23:42.640Z,8.1
2022-11-12T17:29:08.200Z,8.1
2022-11-12T17:34:31.622Z,8.1
2022-11-12T17:39:55.115Z,8.1
2022-11-12T17:45:17.096Z,8.1
2022-11-12T17:50:39.662Z,8.1
2022-11-12T17:55:46.969Z,8.1
2022-11-12T18:01:10.395Z,8.1
2022-11-12T18:06:33.787Z,8.1
2022-11-12T18:12:02.303Z,8.1
2022-11-12T18:17:10.387Z,8.1
2022-11-12T18:22:33.831Z,8.1
2022-11-12T18:27:56.283Z,8.1
2022-11-12T18:33:18.877Z,8.1
2022-11-12T18:38:41.746Z,8.1
2022-11-12T18:44:04.434Z,8.1
2022-11-12T18:49:15.634Z,8.1
2022-11-12T18:54:26.262Z,8
2022-11-12T18:59:49.350Z,8.1
2022-11-12T19:05:19.091Z,8.1
2022-11-12T19:10:31.906Z,8.1
2022-11-12T19:15:44.261Z,8.1
2022-11-12T19:21:10.970Z,8
2022-11-12T19:26:49.452Z,8
2022-11-12T19:32:11.871Z,8.1
2022-11-12T19:37:48.815Z,8
2022-11-12T19:43:03.055Z,8
2022-11-12T19:48:25.645Z,7.9
2022-11-12T19:53:35.676Z,7.9
2022-11-12T19:59:04.811Z,7.9
2022-11-12T20:04:43.494Z,7.9
2022-11-12T20:10:06.165Z,7.9
2022-11-12T20:15:44.635Z,7.9
2022-11-12T20:21:30.150Z,7.9
2022-11-12T20:27:09.573Z,7.9
2022-11-12T20:32:47.896Z,7.9
2022-11-12T20:37:54.441Z,7.9
2022-11-12T20:43:01.999Z,7.9
2022-11-12T20:48:09.753Z,8
2022-11-12T20:54:01.882Z,7.9
2022-11-12T20:59:40.885Z,7.9
2022-11-12T21:05:08.251Z,8
2022-11-12T21:10:49.355Z,8
2022-11-12T21:16:02.749Z,8
2022-11-12T21:21:41.686Z,8
2022-11-12T21:27:20.508Z,8
2022-11-12T21:32:46.197Z,8
2022-11-12T21:38:25.059Z,8
2022-11-12T21:43:48.067Z,8.1
2022-11-12T21:49:29.425Z,8.1
2022-11-12T21:55:07.828Z,8.1
2022-11-12T22:01:15.198Z,8.1
2022-11-12T22:06:37.965Z,8.1
2022-11-12T22:12:01.199Z,8.1
2022-11-12T22:18:00.572Z,8.1
2022-11-12T22:23:25.335Z,8.1
2022-11-12T22:28:50.769Z,8.1
2022-11-12T22:34:28.655Z,8.2
2022-11-12T22:40:13.458Z,8.1
2022-11-12T22:45:51.410Z,8.2
2022-11-12T22:51:29.801Z,8.2
2022-11-12T22:57:07.354Z,8.2
2022-11-12T23:02:47.769Z,8.2
2022-11-12T23:08:26.540Z,8.2
2022-11-12T23:13:37.636Z,8.3
2022-11-12T23:19:00.182Z,8.3
2022-11-12T23:24:27.926Z,8.3
2022-11-12T23:30:05.636Z,8.3
2022-11-12T23:35:43.460Z,8.3
2022-11-12T23:41:26.540Z,8.3
2022-11-12T23:47:04.126Z,8.3
2022-11-12T23:52:42.778Z,8.3
2022-11-12T23:57:33.598Z,8.3
